MMTG/TGZ METAR and TAF weather

Enter ICAO airport designator
Station Type Date Time Source
MMTG METAR 2019/04/25 01:44 UTC NOAA

MMTG 250144Z 00000KT 7SM SKC 31/13 A2983 RMK FU HZ ARND


Station Type Date Time Source
MMTG Decoded METAR 2019/04/25 01:44 UTC NOAA

Tuxtla Gutierrez, Chis., Mexico (MMTG) 16-45N 093-07W
Apr 24, 2019 - 09:44 PM EDT / 2019.04.25 0144 UTC
Wind: Calm:0
Visibility: 7 mile(s):0
Sky conditions: clear
Temperature: 87 F (31 C)
Dew Point: 55 F (13 C)
Relative Humidity: 33%
Pressure (altimeter): 29.83 in. Hg (1010 hPa)
ob: MMTG 250144Z 00000KT 7SM SKC 31/13 A2983 RMK FU HZ ARND
cycle: 1

Station Type Date Time Source
MMTG TAF 2019/04/24 18:35 UTC NOAA

TAF MMTG 241620Z 2418/2518 30010KT 5SM HZ SKC
TEMPO 2422/2502 SCT030
FM251200 00000KT 3SM HZ FU SKC

Example: see airport list